Terminal Aerodrome Forecast
Issued by NWS Bismarck, ND

Home | Current Version | Previous Version | Text Only | Print | Product List | Glossary On
Versions: 1 2 3 4 5 6 7 8 9 10 11 12 13 14 15 16 17 18
000
FTUS43 KBIS 251400 AAB
TAFBIS
TAF AMD
KBIS 251404Z 2514/2612 32009KT P6SM -DZ OVC010
     FM251800 28006KT P6SM OVC020
     FM252100 23008KT P6SM BKN120=

USA.gov is the U.S. government's official web portal to all federal, state and local government web resources and services.